sensor_id;sensor_type;location;lat;lon;timestamp;P1;durP1;ratioP1;P2;durP2;ratioP2
53875;SDS011;39789;53.216;5.624;2022-07-23T00:00:15;4.45;;;3.38;;
53875;SDS011;39789;53.216;5.624;2022-07-23T00:02:41;4.70;;;3.60;;
53875;SDS011;39789;53.216;5.624;2022-07-23T00:05:07;5.07;;;3.78;;
53875;SDS011;39789;53.216;5.624;2022-07-23T00:07:33;5.53;;;3.63;;
53875;SDS011;39789;53.216;5.624;2022-07-23T00:09:59;5.72;;;3.45;;
53875;SDS011;39789;53.216;5.624;2022-07-23T00:12:25;5.38;;;3.63;;
53875;SDS011;39789;53.216;5.624;2022-07-23T00:14:50;4.88;;;3.35;;
53875;SDS011;39789;53.216;5.624;2022-07-23T00:17:16;5.25;;;3.00;;
53875;SDS011;39789;53.216;5.624;2022-07-23T00:19:42;4.57;;;2.97;;
53875;SDS011;39789;53.216;5.624;2022-07-23T00:22:07;3.83;;;2.28;;
53875;SDS011;39789;53.216;5.624;2022-07-23T00:24:33;4.78;;;2.65;;
53875;SDS011;39789;53.216;5.624;2022-07-23T00:30:39;3.55;;;2.20;;
53875;SDS011;39789;53.216;5.624;2022-07-23T00:33:06;3.50;;;2.30;;
53875;SDS011;39789;53.216;5.624;2022-07-23T00:35:34;4.07;;;2.60;;
53875;SDS011;39789;53.216;5.624;2022-07-23T00:38:01;3.63;;;2.95;;
53875;SDS011;39789;53.216;5.624;2022-07-23T00:40:28;4.88;;;3.10;;
53875;SDS011;39789;53.216;5.624;2022-07-23T00:42:54;2.65;;;2.13;;
53875;SDS011;39789;53.216;5.624;2022-07-23T00:45:20;3.45;;;2.60;;
53875;SDS011;39789;53.216;5.624;2022-07-23T00:47:46;6.50;;;2.78;;
53875;SDS011;39789;53.216;5.624;2022-07-23T00:50:12;4.30;;;2.40;;
53875;SDS011;39789;53.216;5.624;2022-07-23T00:52:38;3.17;;;2.88;;
53875;SDS011;39789;53.216;5.624;2022-07-23T00:55:05;5.05;;;2.40;;
53875;SDS011;39789;53.216;5.624;2022-07-23T00:57:32;6.07;;;3.72;;
53875;SDS011;39789;53.216;5.624;2022-07-23T00:59:58;2.78;;;2.58;;
53875;SDS011;39789;53.216;5.624;2022-07-23T01:02:24;4.10;;;2.60;;
53875;SDS011;39789;53.216;5.624;2022-07-23T01:04:51;5.03;;;2.78;;
53875;SDS011;39789;53.216;5.624;2022-07-23T01:07:17;5.47;;;3.45;;
53875;SDS011;39789;53.216;5.624;2022-07-23T01:09:44;4.68;;;3.15;;
53875;SDS011;39789;53.216;5.624;2022-07-23T01:12:10;5.72;;;3.58;;
53875;SDS011;39789;53.216;5.624;2022-07-23T01:14:35;4.82;;;3.70;;
53875;SDS011;39789;53.216;5.624;2022-07-23T01:17:01;5.75;;;3.58;;
53875;SDS011;39789;53.216;5.624;2022-07-23T01:19:27;4.07;;;3.25;;
53875;SDS011;39789;53.216;5.624;2022-07-23T01:21:52;7.82;;;4.32;;
53875;SDS011;39789;53.216;5.624;2022-07-23T01:24:18;4.90;;;3.30;;
53875;SDS011;39789;53.216;5.624;2022-07-23T01:26:45;7.10;;;3.83;;
53875;SDS011;39789;53.216;5.624;2022-07-23T01:29:11;4.03;;;3.30;;
53875;SDS011;39789;53.216;5.624;2022-07-23T01:31:38;7.30;;;4.28;;
53875;SDS011;39789;53.216;5.624;2022-07-23T01:34:03;5.43;;;3.53;;
53875;SDS011;39789;53.216;5.624;2022-07-23T01:36:29;4.25;;;3.47;;
53875;SDS011;39789;53.216;5.624;2022-07-23T01:38:55;4.95;;;3.33;;
53875;SDS011;39789;53.216;5.624;2022-07-23T01:41:20;6.80;;;3.47;;
53875;SDS011;39789;53.216;5.624;2022-07-23T01:43:46;4.80;;;3.85;;
53875;SDS011;39789;53.216;5.624;2022-07-23T01:46:12;9.80;;;3.95;;
53875;SDS011;39789;53.216;5.624;2022-07-23T01:48:38;4.85;;;2.80;;
53875;SDS011;39789;53.216;5.624;2022-07-23T01:51:03;5.72;;;3.45;;
53875;SDS011;39789;53.216;5.624;2022-07-23T01:53:29;5.07;;;3.08;;
53875;SDS011;39789;53.216;5.624;2022-07-23T01:55:56;5.10;;;3.42;;
53875;SDS011;39789;53.216;5.624;2022-07-23T01:58:23;4.57;;;3.00;;
53875;SDS011;39789;53.216;5.624;2022-07-23T02:00:50;5.15;;;3.40;;
53875;SDS011;39789;53.216;5.624;2022-07-23T02:03:15;3.90;;;3.25;;
53875;SDS011;39789;53.216;5.624;2022-07-23T02:05:41;5.25;;;3.00;;
53875;SDS011;39789;53.216;5.624;2022-07-23T02:08:07;6.20;;;3.00;;
53875;SDS011;39789;53.216;5.624;2022-07-23T02:10:32;4.65;;;2.85;;
53875;SDS011;39789;53.216;5.624;2022-07-23T02:12:58;4.60;;;3.35;;
53875;SDS011;39789;53.216;5.624;2022-07-23T02:15:23;4.72;;;3.35;;
53875;SDS011;39789;53.216;5.624;2022-07-23T02:17:49;5.40;;;3.17;;
53875;SDS011;39789;53.216;5.624;2022-07-23T02:20:15;4.53;;;2.70;;
53875;SDS011;39789;53.216;5.624;2022-07-23T02:22:40;5.43;;;3.25;;
53875;SDS011;39789;53.216;5.624;2022-07-23T02:25:06;10.82;;;4.28;;
53875;SDS011;39789;53.216;5.624;2022-07-23T02:27:32;5.50;;;3.53;;
53875;SDS011;39789;53.216;5.624;2022-07-23T02:29:59;4.50;;;3.35;;
53875;SDS011;39789;53.216;5.624;2022-07-23T02:32:24;4.72;;;3.22;;
53875;SDS011;39789;53.216;5.624;2022-07-23T02:34:50;7.30;;;3.40;;
53875;SDS011;39789;53.216;5.624;2022-07-23T02:37:16;4.68;;;3.50;;
53875;SDS011;39789;53.216;5.624;2022-07-23T02:39:42;5.82;;;3.85;;
53875;SDS011;39789;53.216;5.624;2022-07-23T02:42:08;3.90;;;2.85;;
53875;SDS011;39789;53.216;5.624;2022-07-23T02:44:33;5.22;;;3.50;;
53875;SDS011;39789;53.216;5.624;2022-07-23T02:46:59;5.00;;;3.63;;
53875;SDS011;39789;53.216;5.624;2022-07-23T02:49:25;3.80;;;3.35;;
53875;SDS011;39789;53.216;5.624;2022-07-23T02:51:50;4.40;;;3.13;;
53875;SDS011;39789;53.216;5.624;2022-07-23T02:54:16;5.75;;;3.25;;
53875;SDS011;39789;53.216;5.624;2022-07-23T02:56:42;3.70;;;3.17;;
53875;SDS011;39789;53.216;5.624;2022-07-23T02:59:07;4.70;;;3.03;;
53875;SDS011;39789;53.216;5.624;2022-07-23T03:01:33;4.95;;;3.67;;
53875;SDS011;39789;53.216;5.624;2022-07-23T03:03:59;4.45;;;3.20;;
53875;SDS011;39789;53.216;5.624;2022-07-23T03:06:24;4.18;;;3.15;;
53875;SDS011;39789;53.216;5.624;2022-07-23T03:08:50;4.40;;;3.08;;
53875;SDS011;39789;53.216;5.624;2022-07-23T03:11:16;4.85;;;3.40;;
53875;SDS011;39789;53.216;5.624;2022-07-23T03:13:41;4.25;;;2.72;;
53875;SDS011;39789;53.216;5.624;2022-07-23T03:16:07;13.07;;;3.80;;
53875;SDS011;39789;53.216;5.624;2022-07-23T03:18:33;6.80;;;3.47;;
53875;SDS011;39789;53.216;5.624;2022-07-23T03:20:59;5.32;;;3.10;;
53875;SDS011;39789;53.216;5.624;2022-07-23T03:23:24;5.63;;;2.92;;
53875;SDS011;39789;53.216;5.624;2022-07-23T03:25:50;4.05;;;3.10;;
53875;SDS011;39789;53.216;5.624;2022-07-23T03:28:16;3.20;;;2.78;;
53875;SDS011;39789;53.216;5.624;2022-07-23T03:30:43;5.38;;;2.95;;
53875;SDS011;39789;53.216;5.624;2022-07-23T03:33:11;5.38;;;3.08;;
53875;SDS011;39789;53.216;5.624;2022-07-23T03:35:37;4.68;;;3.13;;
53875;SDS011;39789;53.216;5.624;2022-07-23T03:38:03;4.35;;;3.15;;
53875;SDS011;39789;53.216;5.624;2022-07-23T03:40:28;5.68;;;3.00;;
53875;SDS011;39789;53.216;5.624;2022-07-23T03:42:54;4.78;;;2.92;;
53875;SDS011;39789;53.216;5.624;2022-07-23T03:45:19;7.45;;;2.80;;
53875;SDS011;39789;53.216;5.624;2022-07-23T03:47:45;7.15;;;3.05;;
53875;SDS011;39789;53.216;5.624;2022-07-23T03:50:11;5.95;;;3.35;;
53875;SDS011;39789;53.216;5.624;2022-07-23T03:52:36;4.18;;;3.42;;
53875;SDS011;39789;53.216;5.624;2022-07-23T03:55:03;7.13;;;3.25;;
53875;SDS011;39789;53.216;5.624;2022-07-23T03:57:29;4.22;;;2.90;;
53875;SDS011;39789;53.216;5.624;2022-07-23T03:59:55;4.57;;;2.50;;
53875;SDS011;39789;53.216;5.624;2022-07-23T04:02:20;5.50;;;2.85;;
53875;SDS011;39789;53.216;5.624;2022-07-23T04:04:46;3.40;;;2.70;;
53875;SDS011;39789;53.216;5.624;2022-07-23T04:07:12;4.68;;;2.88;;
53875;SDS011;39789;53.216;5.624;2022-07-23T04:09:38;4.32;;;2.65;;
53875;SDS011;39789;53.216;5.624;2022-07-23T04:12:05;3.22;;;2.78;;
53875;SDS011;39789;53.216;5.624;2022-07-23T04:14:31;2.40;;;2.17;;
53875;SDS011;39789;53.216;5.624;2022-07-23T04:16:58;3.13;;;2.50;;
53875;SDS011;39789;53.216;5.624;2022-07-23T04:19:23;6.18;;;2.83;;
53875;SDS011;39789;53.216;5.624;2022-07-23T04:21:49;3.00;;;2.30;;
53875;SDS011;39789;53.216;5.624;2022-07-23T04:24:15;3.17;;;2.75;;
53875;SDS011;39789;53.216;5.624;2022-07-23T04:26:41;4.20;;;2.78;;
53875;SDS011;39789;53.216;5.624;2022-07-23T04:29:07;3.33;;;2.50;;
53875;SDS011;39789;53.216;5.624;2022-07-23T04:31:32;2.55;;;2.35;;
53875;SDS011;39789;53.216;5.624;2022-07-23T04:33:58;5.80;;;2.65;;
53875;SDS011;39789;53.216;5.624;2022-07-23T04:36:24;4.68;;;2.83;;
53875;SDS011;39789;53.216;5.624;2022-07-23T04:38:49;3.13;;;2.35;;
53875;SDS011;39789;53.216;5.624;2022-07-23T04:41:15;5.95;;;2.30;;
53875;SDS011;39789;53.216;5.624;2022-07-23T04:43:40;2.58;;;2.10;;
53875;SDS011;39789;53.216;5.624;2022-07-23T04:46:06;2.58;;;2.30;;
53875;SDS011;39789;53.216;5.624;2022-07-23T04:48:32;2.92;;;2.45;;
53875;SDS011;39789;53.216;5.624;2022-07-23T04:50:57;3.13;;;1.70;;
53875;SDS011;39789;53.216;5.624;2022-07-23T04:53:23;3.22;;;2.00;;
53875;SDS011;39789;53.216;5.624;2022-07-23T04:55:49;3.72;;;2.03;;
53875;SDS011;39789;53.216;5.624;2022-07-23T04:58:14;4.55;;;1.85;;
53875;SDS011;39789;53.216;5.624;2022-07-23T05:00:40;4.78;;;2.00;;
53875;SDS011;39789;53.216;5.624;2022-07-23T05:03:06;2.78;;;1.75;;
53875;SDS011;39789;53.216;5.624;2022-07-23T05:05:32;5.32;;;2.08;;
53875;SDS011;39789;53.216;5.624;2022-07-23T05:07:58;3.92;;;2.08;;
53875;SDS011;39789;53.216;5.624;2022-07-23T05:10:24;2.45;;;1.92;;
53875;SDS011;39789;53.216;5.624;2022-07-23T05:12:49;6.15;;;2.03;;
53875;SDS011;39789;53.216;5.624;2022-07-23T05:15:15;2.55;;;1.70;;
53875;SDS011;39789;53.216;5.624;2022-07-23T05:17:40;3.08;;;1.85;;
53875;SDS011;39789;53.216;5.624;2022-07-23T05:20:06;4.32;;;1.95;;
53875;SDS011;39789;53.216;5.624;2022-07-23T05:22:32;2.05;;;1.83;;
53875;SDS011;39789;53.216;5.624;2022-07-23T05:24:58;1.90;;;1.55;;
53875;SDS011;39789;53.216;5.624;2022-07-23T05:30:34;1.30;;;1.20;;
53875;SDS011;39789;53.216;5.624;2022-07-23T05:32:59;5.80;;;1.90;;
53875;SDS011;39789;53.216;5.624;2022-07-23T05:35:25;3.67;;;1.80;;
53875;SDS011;39789;53.216;5.624;2022-07-23T05:37:50;3.83;;;1.40;;
53875;SDS011;39789;53.216;5.624;2022-07-23T05:40:17;2.42;;;1.08;;
53875;SDS011;39789;53.216;5.624;2022-07-23T05:42:43;1.30;;;1.13;;
53875;SDS011;39789;53.216;5.624;2022-07-23T05:45:10;0.90;;;0.90;;
53875;SDS011;39789;53.216;5.624;2022-07-23T05:47:39;0.77;;;0.70;;
53875;SDS011;39789;53.216;5.624;2022-07-23T05:50:09;0.98;;;0.95;;
53875;SDS011;39789;53.216;5.624;2022-07-23T05:52:35;0.93;;;0.90;;
53875;SDS011;39789;53.216;5.624;2022-07-23T05:55:01;3.40;;;0.90;;
53875;SDS011;39789;53.216;5.624;2022-07-23T05:57:26;0.77;;;0.77;;
53875;SDS011;39789;53.216;5.624;2022-07-23T05:59:52;2.10;;;0.85;;
53875;SDS011;39789;53.216;5.624;2022-07-23T06:02:17;1.38;;;0.93;;
53875;SDS011;39789;53.216;5.624;2022-07-23T06:04:49;0.93;;;0.82;;
53875;SDS011;39789;53.216;5.624;2022-07-23T06:07:20;13.50;;;1.08;;
53875;SDS011;39789;53.216;5.624;2022-07-23T06:09:47;1.10;;;0.88;;
53875;SDS011;39789;53.216;5.624;2022-07-23T06:12:15;0.70;;;0.70;;
53875;SDS011;39789;53.216;5.624;2022-07-23T06:14:41;0.82;;;0.70;;
53875;SDS011;39789;53.216;5.624;2022-07-23T06:17:07;1.45;;;0.85;;
53875;SDS011;39789;53.216;5.624;2022-07-23T06:19:34;2.33;;;1.00;;
53875;SDS011;39789;53.216;5.624;2022-07-23T06:22:00;0.98;;;0.70;;
53875;SDS011;39789;53.216;5.624;2022-07-23T06:24:25;1.20;;;0.85;;
53875;SDS011;39789;53.216;5.624;2022-07-23T06:26:51;0.95;;;0.90;;
53875;SDS011;39789;53.216;5.624;2022-07-23T06:29:16;0.70;;;0.70;;
53875;SDS011;39789;53.216;5.624;2022-07-23T06:31:42;0.80;;;0.80;;
53875;SDS011;39789;53.216;5.624;2022-07-23T06:34:08;1.70;;;0.68;;
53875;SDS011;39789;53.216;5.624;2022-07-23T06:36:33;2.25;;;0.90;;
53875;SDS011;39789;53.216;5.624;2022-07-23T06:38:59;0.80;;;0.80;;
53875;SDS011;39789;53.216;5.624;2022-07-23T06:41:24;1.15;;;0.85;;
53875;SDS011;39789;53.216;5.624;2022-07-23T06:43:50;1.13;;;0.77;;
53875;SDS011;39789;53.216;5.624;2022-07-23T06:46:16;1.50;;;0.85;;
53875;SDS011;39789;53.216;5.624;2022-07-23T06:48:42;1.42;;;0.95;;
53875;SDS011;39789;53.216;5.624;2022-07-23T06:51:07;1.30;;;0.90;;
53875;SDS011;39789;53.216;5.624;2022-07-23T06:53:33;1.02;;;0.93;;
53875;SDS011;39789;53.216;5.624;2022-07-23T06:55:58;1.75;;;1.42;;
53875;SDS011;39789;53.216;5.624;2022-07-23T06:58:24;2.08;;;1.10;;
53875;SDS011;39789;53.216;5.624;2022-07-23T07:04:30;0.98;;;0.90;;
53875;SDS011;39789;53.216;5.624;2022-07-23T07:06:56;1.88;;;0.90;;
53875;SDS011;39789;53.216;5.624;2022-07-23T07:09:22;2.67;;;1.10;;
53875;SDS011;39789;53.216;5.624;2022-07-23T07:11:49;1.60;;;0.75;;
53875;SDS011;39789;53.216;5.624;2022-07-23T07:14:17;0.68;;;0.60;;
53875;SDS011;39789;53.216;5.624;2022-07-23T07:16:43;1.25;;;0.90;;
53875;SDS011;39789;53.216;5.624;2022-07-23T07:19:09;0.93;;;0.85;;
53875;SDS011;39789;53.216;5.624;2022-07-23T07:21:34;1.70;;;1.10;;
53875;SDS011;39789;53.216;5.624;2022-07-23T07:27:06;3.22;;;0.90;;
53875;SDS011;39789;53.216;5.624;2022-07-23T07:32:43;0.80;;;0.80;;
53875;SDS011;39789;53.216;5.624;2022-07-23T07:35:09;1.05;;;0.77;;
53875;SDS011;39789;53.216;5.624;2022-07-23T07:40:07;0.82;;;0.80;;
53875;SDS011;39789;53.216;5.624;2022-07-23T07:42:33;2.00;;;0.95;;
53875;SDS011;39789;53.216;5.624;2022-07-23T07:44:59;1.10;;;1.00;;
53875;SDS011;39789;53.216;5.624;2022-07-23T07:47:25;0.80;;;0.80;;
53875;SDS011;39789;53.216;5.624;2022-07-23T07:52:52;0.65;;;0.65;;
53875;SDS011;39789;53.216;5.624;2022-07-23T07:55:18;0.90;;;0.90;;
53875;SDS011;39789;53.216;5.624;2022-07-23T07:57:44;1.08;;;0.90;;
53875;SDS011;39789;53.216;5.624;2022-07-23T08:00:10;1.23;;;0.80;;
53875;SDS011;39789;53.216;5.624;2022-07-23T08:02:52;1.08;;;0.82;;
53875;SDS011;39789;53.216;5.624;2022-07-23T08:05:20;3.00;;;1.20;;
53875;SDS011;39789;53.216;5.624;2022-07-23T08:07:50;0.85;;;0.85;;
53875;SDS011;39789;53.216;5.624;2022-07-23T08:10:17;0.93;;;0.75;;
53875;SDS011;39789;53.216;5.624;2022-07-23T08:12:49;0.90;;;0.90;;
53875;SDS011;39789;53.216;5.624;2022-07-23T08:15:19;2.97;;;0.93;;
53875;SDS011;39789;53.216;5.624;2022-07-23T08:17:46;1.08;;;0.95;;
53875;SDS011;39789;53.216;5.624;2022-07-23T08:20:13;3.20;;;0.88;;
53875;SDS011;39789;53.216;5.624;2022-07-23T08:22:42;2.30;;;1.30;;
53875;SDS011;39789;53.216;5.624;2022-07-23T08:25:13;1.35;;;1.20;;
53875;SDS011;39789;53.216;5.624;2022-07-23T08:27:40;1.00;;;1.00;;
53875;SDS011;39789;53.216;5.624;2022-07-23T08:30:06;2.05;;;1.17;;
53875;SDS011;39789;53.216;5.624;2022-07-23T08:32:32;2.78;;;1.17;;
53875;SDS011;39789;53.216;5.624;2022-07-23T08:34:57;1.15;;;1.08;;
53875;SDS011;39789;53.216;5.624;2022-07-23T08:37:23;1.52;;;1.48;;
53875;SDS011;39789;53.216;5.624;2022-07-23T08:39:49;2.15;;;1.05;;
53875;SDS011;39789;53.216;5.624;2022-07-23T08:42:15;1.70;;;1.23;;
53875;SDS011;39789;53.216;5.624;2022-07-23T08:44:41;2.28;;;1.20;;
53875;SDS011;39789;53.216;5.624;2022-07-23T08:47:11;1.88;;;1.25;;
53875;SDS011;39789;53.216;5.624;2022-07-23T08:49:38;2.70;;;1.10;;
53875;SDS011;39789;53.216;5.624;2022-07-23T08:52:04;2.55;;;1.23;;
53875;SDS011;39789;53.216;5.624;2022-07-23T08:54:31;0.95;;;0.95;;
53875;SDS011;39789;53.216;5.624;2022-07-23T08:56:57;3.80;;;1.30;;
53875;SDS011;39789;53.216;5.624;2022-07-23T08:59:22;1.88;;;1.73;;
53875;SDS011;39789;53.216;5.624;2022-07-23T09:01:48;2.03;;;1.30;;
53875;SDS011;39789;53.216;5.624;2022-07-23T09:04:13;2.85;;;1.20;;
53875;SDS011;39789;53.216;5.624;2022-07-23T09:06:39;1.10;;;1.00;;
53875;SDS011;39789;53.216;5.624;2022-07-23T09:09:17;5.90;;;1.77;;
53875;SDS011;39789;53.216;5.624;2022-07-23T09:11:47;2.42;;;1.20;;
53875;SDS011;39789;53.216;5.624;2022-07-23T09:14:36;1.40;;;1.05;;
53875;SDS011;39789;53.216;5.624;2022-07-23T09:19:36;2.10;;;1.00;;
53875;SDS011;39789;53.216;5.624;2022-07-23T09:25:04;3.55;;;0.88;;
53875;SDS011;39789;53.216;5.624;2022-07-23T09:30:11;2.90;;;1.00;;
53875;SDS011;39789;53.216;5.624;2022-07-23T09:32:38;1.60;;;1.05;;
53875;SDS011;39789;53.216;5.624;2022-07-23T09:35:04;1.75;;;1.08;;
53875;SDS011;39789;53.216;5.624;2022-07-23T09:37:30;1.92;;;1.00;;
53875;SDS011;39789;53.216;5.624;2022-07-23T09:40:03;9.32;;;1.88;;
53875;SDS011;39789;53.216;5.624;2022-07-23T09:42:33;0.90;;;0.90;;
53875;SDS011;39789;53.216;5.624;2022-07-23T09:44:59;1.00;;;0.93;;
53875;SDS011;39789;53.216;5.624;2022-07-23T09:47:30;1.95;;;1.10;;
53875;SDS011;39789;53.216;5.624;2022-07-23T09:56:03;1.35;;;1.20;;
53875;SDS011;39789;53.216;5.624;2022-07-23T09:58:29;1.35;;;1.20;;
53875;SDS011;39789;53.216;5.624;2022-07-23T10:00:56;2.75;;;1.38;;
53875;SDS011;39789;53.216;5.624;2022-07-23T10:03:23;1.75;;;1.00;;
53875;SDS011;39789;53.216;5.624;2022-07-23T10:05:50;1.55;;;1.10;;
53875;SDS011;39789;53.216;5.624;2022-07-23T10:08:18;1.20;;;1.10;;
53875;SDS011;39789;53.216;5.624;2022-07-23T10:10:45;1.42;;;0.95;;
53875;SDS011;39789;53.216;5.624;2022-07-23T10:13:14;1.15;;;1.00;;
53875;SDS011;39789;53.216;5.624;2022-07-23T10:16:10;2.08;;;1.08;;
53875;SDS011;39789;53.216;5.624;2022-07-23T10:18:35;2.20;;;1.58;;
53875;SDS011;39789;53.216;5.624;2022-07-23T10:21:02;5.18;;;1.38;;
53875;SDS011;39789;53.216;5.624;2022-07-23T10:23:45;2.63;;;1.20;;
53875;SDS011;39789;53.216;5.624;2022-07-23T10:26:36;1.42;;;1.27;;
53875;SDS011;39789;53.216;5.624;2022-07-23T10:29:13;1.13;;;1.02;;
53875;SDS011;39789;53.216;5.624;2022-07-23T10:32:04;2.50;;;1.30;;
53875;SDS011;39789;53.216;5.624;2022-07-23T10:37:31;1.45;;;1.33;;
53875;SDS011;39789;53.216;5.624;2022-07-23T10:42:59;5.25;;;1.40;;
53875;SDS011;39789;53.216;5.624;2022-07-23T10:45:33;2.33;;;1.30;;
53875;SDS011;39789;53.216;5.624;2022-07-23T10:48:17;3.92;;;1.30;;
53875;SDS011;39789;53.216;5.624;2022-07-23T10:59:22;1.13;;;1.02;;
53875;SDS011;39789;53.216;5.624;2022-07-23T11:01:48;2.58;;;1.15;;
53875;SDS011;39789;53.216;5.624;2022-07-23T11:04:14;1.45;;;1.13;;
53875;SDS011;39789;53.216;5.624;2022-07-23T11:07:22;1.73;;;0.93;;
53875;SDS011;39789;53.216;5.624;2022-07-23T11:09:41;2.22;;;1.10;;
53875;SDS011;39789;53.216;5.624;2022-07-23T11:17:31;1.90;;;1.40;;
53875;SDS011;39789;53.216;5.624;2022-07-23T11:22:55;1.52;;;1.20;;
53875;SDS011;39789;53.216;5.624;2022-07-23T11:27:47;1.80;;;1.00;;
53875;SDS011;39789;53.216;5.624;2022-07-23T11:32:52;1.05;;;0.90;;
53875;SDS011;39789;53.216;5.624;2022-07-23T11:35:33;2.70;;;1.00;;
53875;SDS011;39789;53.216;5.624;2022-07-23T11:40:31;2.47;;;1.20;;
53875;SDS011;39789;53.216;5.624;2022-07-23T11:42:58;1.73;;;1.20;;
53875;SDS011;39789;53.216;5.624;2022-07-23T11:45:30;8.75;;;1.80;;
53875;SDS011;39789;53.216;5.624;2022-07-23T11:47:58;1.00;;;0.90;;
53875;SDS011;39789;53.216;5.624;2022-07-23T11:50:23;3.40;;;1.17;;
53875;SDS011;39789;53.216;5.624;2022-07-23T11:52:53;1.27;;;1.05;;
53875;SDS011;39789;53.216;5.624;2022-07-23T11:55:19;3.72;;;1.50;;
53875;SDS011;39789;53.216;5.624;2022-07-23T11:57:46;2.50;;;1.10;;
53875;SDS011;39789;53.216;5.624;2022-07-23T12:00:13;1.13;;;1.00;;
53875;SDS011;39789;53.216;5.624;2022-07-23T12:02:47;1.90;;;1.15;;
53875;SDS011;39789;53.216;5.624;2022-07-23T12:05:16;1.77;;;1.10;;
53875;SDS011;39789;53.216;5.624;2022-07-23T12:07:44;1.40;;;1.10;;
53875;SDS011;39789;53.216;5.624;2022-07-23T12:10:27;1.75;;;1.10;;
53875;SDS011;39789;53.216;5.624;2022-07-23T12:12:59;1.88;;;1.23;;
53875;SDS011;39789;53.216;5.624;2022-07-23T12:15:28;1.25;;;1.08;;
53875;SDS011;39789;53.216;5.624;2022-07-23T12:17:55;1.38;;;1.13;;
53875;SDS011;39789;53.216;5.624;2022-07-23T12:20:22;2.88;;;1.15;;
53875;SDS011;39789;53.216;5.624;2022-07-23T12:22:57;2.45;;;1.50;;
53875;SDS011;39789;53.216;5.624;2022-07-23T12:25:29;2.40;;;1.40;;
53875;SDS011;39789;53.216;5.624;2022-07-23T12:28:00;1.38;;;1.27;;
53875;SDS011;39789;53.216;5.624;2022-07-23T12:30:41;2.90;;;1.63;;
53875;SDS011;39789;53.216;5.624;2022-07-23T12:33:09;1.35;;;1.13;;
53875;SDS011;39789;53.216;5.624;2022-07-23T12:35:38;1.38;;;1.25;;
53875;SDS011;39789;53.216;5.624;2022-07-23T12:38:15;1.45;;;1.20;;
53875;SDS011;39789;53.216;5.624;2022-07-23T12:43:23;2.83;;;1.63;;
53875;SDS011;39789;53.216;5.624;2022-07-23T12:45:51;3.10;;;1.30;;
53875;SDS011;39789;53.216;5.624;2022-07-23T12:50:56;2.25;;;1.77;;
53875;SDS011;39789;53.216;5.624;2022-07-23T12:53:33;2.42;;;1.50;;
53875;SDS011;39789;53.216;5.624;2022-07-23T12:56:16;1.58;;;1.27;;
53875;SDS011;39789;53.216;5.624;2022-07-23T13:03:56;3.65;;;1.63;;
53875;SDS011;39789;53.216;5.624;2022-07-23T13:09:14;6.70;;;1.70;;
53875;SDS011;39789;53.216;5.624;2022-07-23T13:11:42;1.67;;;1.58;;
53875;SDS011;39789;53.216;5.624;2022-07-23T13:14:10;1.45;;;1.35;;
53875;SDS011;39789;53.216;5.624;2022-07-23T13:16:36;1.92;;;1.73;;
53875;SDS011;39789;53.216;5.624;2022-07-23T13:19:02;1.50;;;1.35;;
53875;SDS011;39789;53.216;5.624;2022-07-23T13:21:28;1.58;;;1.48;;
53875;SDS011;39789;53.216;5.624;2022-07-23T13:23:54;1.58;;;1.48;;
53875;SDS011;39789;53.216;5.624;2022-07-23T13:26:21;5.70;;;2.10;;
53875;SDS011;39789;53.216;5.624;2022-07-23T13:28:46;1.92;;;1.70;;
53875;SDS011;39789;53.216;5.624;2022-07-23T13:31:12;2.65;;;1.40;;
53875;SDS011;39789;53.216;5.624;2022-07-23T13:33:38;2.70;;;1.85;;
53875;SDS011;39789;53.216;5.624;2022-07-23T13:36:04;2.00;;;1.77;;
53875;SDS011;39789;53.216;5.624;2022-07-23T13:38:30;2.28;;;1.90;;
53875;SDS011;39789;53.216;5.624;2022-07-23T13:40:56;3.10;;;1.90;;
53875;SDS011;39789;53.216;5.624;2022-07-23T13:43:23;2.22;;;1.83;;
53875;SDS011;39789;53.216;5.624;2022-07-23T13:45:50;1.77;;;1.50;;
53875;SDS011;39789;53.216;5.624;2022-07-23T13:48:17;3.35;;;1.85;;
53875;SDS011;39789;53.216;5.624;2022-07-23T13:50:44;7.43;;;2.15;;
53875;SDS011;39789;53.216;5.624;2022-07-23T13:53:12;3.08;;;2.13;;
53875;SDS011;39789;53.216;5.624;2022-07-23T13:55:41;2.08;;;1.48;;
53875;SDS011;39789;53.216;5.624;2022-07-23T13:58:08;1.55;;;1.45;;
53875;SDS011;39789;53.216;5.624;2022-07-23T14:00:35;3.58;;;1.70;;
53875;SDS011;39789;53.216;5.624;2022-07-23T14:03:02;2.72;;;2.13;;
53875;SDS011;39789;53.216;5.624;2022-07-23T14:05:28;3.65;;;2.60;;
53875;SDS011;39789;53.216;5.624;2022-07-23T14:07:54;4.60;;;1.83;;
53875;SDS011;39789;53.216;5.624;2022-07-23T14:10:21;3.17;;;2.05;;
53875;SDS011;39789;53.216;5.624;2022-07-23T14:12:47;4.30;;;2.10;;
53875;SDS011;39789;53.216;5.624;2022-07-23T14:15:14;3.13;;;2.10;;
53875;SDS011;39789;53.216;5.624;2022-07-23T14:17:44;3.60;;;2.55;;
53875;SDS011;39789;53.216;5.624;2022-07-23T14:20:11;2.97;;;2.17;;
53875;SDS011;39789;53.216;5.624;2022-07-23T14:22:39;2.65;;;1.92;;
53875;SDS011;39789;53.216;5.624;2022-07-23T14:25:05;1.95;;;1.75;;
53875;SDS011;39789;53.216;5.624;2022-07-23T14:27:32;1.85;;;1.50;;
53875;SDS011;39789;53.216;5.624;2022-07-23T14:29:58;3.08;;;1.80;;
53875;SDS011;39789;53.216;5.624;2022-07-23T14:32:24;3.30;;;2.05;;
53875;SDS011;39789;53.216;5.624;2022-07-23T14:34:50;1.90;;;1.80;;
53875;SDS011;39789;53.216;5.624;2022-07-23T14:37:17;1.65;;;1.40;;
53875;SDS011;39789;53.216;5.624;2022-07-23T14:39:43;4.20;;;1.92;;
53875;SDS011;39789;53.216;5.624;2022-07-23T14:42:09;2.92;;;2.20;;
53875;SDS011;39789;53.216;5.624;2022-07-23T14:44:35;2.45;;;1.85;;
53875;SDS011;39789;53.216;5.624;2022-07-23T14:47:02;3.85;;;1.70;;
53875;SDS011;39789;53.216;5.624;2022-07-23T14:49:29;3.10;;;2.00;;
53875;SDS011;39789;53.216;5.624;2022-07-23T14:51:58;4.30;;;2.33;;
53875;SDS011;39789;53.216;5.624;2022-07-23T14:54:24;2.60;;;2.05;;
53875;SDS011;39789;53.216;5.624;2022-07-23T14:56:52;2.28;;;2.00;;
53875;SDS011;39789;53.216;5.624;2022-07-23T14:59:21;2.22;;;1.95;;
53875;SDS011;39789;53.216;5.624;2022-07-23T15:01:47;2.75;;;1.92;;
53875;SDS011;39789;53.216;5.624;2022-07-23T15:04:13;2.47;;;1.70;;
53875;SDS011;39789;53.216;5.624;2022-07-23T15:06:39;2.45;;;1.77;;
53875;SDS011;39789;53.216;5.624;2022-07-23T15:09:05;3.40;;;1.90;;
53875;SDS011;39789;53.216;5.624;2022-07-23T15:11:31;3.42;;;1.58;;
53875;SDS011;39789;53.216;5.624;2022-07-23T15:13:59;2.40;;;1.50;;
53875;SDS011;39789;53.216;5.624;2022-07-23T15:16:25;3.97;;;1.50;;
53875;SDS011;39789;53.216;5.624;2022-07-23T15:18:51;3.38;;;1.80;;
53875;SDS011;39789;53.216;5.624;2022-07-23T15:21:17;2.17;;;1.58;;
53875;SDS011;39789;53.216;5.624;2022-07-23T15:23:43;2.53;;;1.80;;
53875;SDS011;39789;53.216;5.624;2022-07-23T15:26:10;9.02;;;2.30;;
53875;SDS011;39789;53.216;5.624;2022-07-23T15:28:36;4.93;;;1.70;;
53875;SDS011;39789;53.216;5.624;2022-07-23T15:31:02;4.10;;;1.98;;
53875;SDS011;39789;53.216;5.624;2022-07-23T15:33:28;2.03;;;1.80;;
53875;SDS011;39789;53.216;5.624;2022-07-23T15:35:54;3.67;;;2.00;;
53875;SDS011;39789;53.216;5.624;2022-07-23T15:38:21;3.15;;;1.90;;
53875;SDS011;39789;53.216;5.624;2022-07-23T15:40:47;2.53;;;1.73;;
53875;SDS011;39789;53.216;5.624;2022-07-23T15:43:13;2.47;;;1.40;;
53875;SDS011;39789;53.216;5.624;2022-07-23T15:45:39;1.80;;;1.55;;
53875;SDS011;39789;53.216;5.624;2022-07-23T15:48:05;3.38;;;1.83;;
53875;SDS011;39789;53.216;5.624;2022-07-23T15:53:02;3.35;;;1.80;;
53875;SDS011;39789;53.216;5.624;2022-07-23T15:55:27;1.80;;;1.48;;
53875;SDS011;39789;53.216;5.624;2022-07-23T15:57:53;2.22;;;1.83;;
53875;SDS011;39789;53.216;5.624;2022-07-23T16:00:18;2.17;;;1.75;;
53875;SDS011;39789;53.216;5.624;2022-07-23T16:02:44;1.77;;;1.60;;
53875;SDS011;39789;53.216;5.624;2022-07-23T16:05:10;1.50;;;1.40;;
53875;SDS011;39789;53.216;5.624;2022-07-23T16:07:35;2.00;;;1.85;;
53875;SDS011;39789;53.216;5.624;2022-07-23T16:10:04;1.52;;;1.30;;